CES201 ZSPD-EGKK
Flight info
| Callsign | CES201 |
|---|---|
| Flight time | N/A |
| Altitude | 34100 |
| Route | PIK83D PIKAS G330 PIMOL A593 DALIM W157 BEKDO/K0928S1010 W157 VYK G212 SOTMU/K0919S1040 B339 POLHO Y520 SERNA/K0922F340 R497 UTIMA/K0909F360 R497 TODES B228 HMN L870 AGDON/K0909F380 L870 RANVA/N0488F380 L870 RESMO DCT TODNA DCT DEREX DCT KOTAM DCT ALASA DCT KUTXO N125 BLUFA DCT GALSO Q63 ARREK Y4 TEBRA |
| Aircraft | A359/H-SDE2E3GHIJ3J4J5LM1ORWXY/LB1D1 |
Departure
| Time | N/A |
|---|---|
| Airport | Shanghai Pudong International Airport (ZSPD) |
Arrival
| Time | 2026-05-05 19:31 |
|---|---|
| Airport | London Gatwick Airport (EGKK) |
| Time | Latitude | Longitude | Altitude | Speed | Heading |
|---|---|---|---|---|---|
| 2026-05-05 18:54 | 51.92000 | 3.68148 | 37910 ft | 468 kts | 238° |
| 2026-05-05 18:55 | 51.88694 | 3.59084 | 37910 ft | 467 kts | 238° |
| 2026-05-05 18:55 | 51.85380 | 3.50030 | 37917 ft | 466 kts | 238° |
| 2026-05-05 18:56 | 51.82074 | 3.41027 | 37586 ft | 459 kts | 237° |
| 2026-05-05 18:56 | 51.80469 | 3.36663 | 36560 ft | 454 kts | 237° |
| 2026-05-05 18:56 | 51.78823 | 3.32198 | 35058 ft | 459 kts | 236° |
| 2026-05-05 18:57 | 51.77201 | 3.27812 | 33963 ft | 458 kts | 236° |
| 2026-05-05 18:57 | 51.75599 | 3.23476 | 33466 ft | 440 kts | 236° |
| 2026-05-05 18:57 | 51.74211 | 3.19175 | 33075 ft | 424 kts | 243° |
| 2026-05-05 18:57 | 51.73258 | 3.14735 | 32662 ft | 415 kts | 252° |
| 2026-05-05 18:58 | 51.72676 | 3.10140 | 32214 ft | 422 kts | 257° |
| 2026-05-05 18:58 | 51.72200 | 3.05458 | 31758 ft | 422 kts | 258° |
| 2026-05-05 18:58 | 51.71786 | 3.00787 | 31292 ft | 419 kts | 258° |
| 2026-05-05 18:58 | 51.71403 | 2.96199 | 30849 ft | 416 kts | 259° |
| 2026-05-05 18:59 | 51.71018 | 2.91534 | 30402 ft | 414 kts | 259° |
| 2026-05-05 18:59 | 51.70639 | 2.87005 | 29958 ft | 411 kts | 258° |
| 2026-05-05 18:59 | 51.70251 | 2.82463 | 29470 ft | 408 kts | 259° |
| 2026-05-05 18:59 | 51.69860 | 2.77959 | 29027 ft | 404 kts | 259° |
| 2026-05-05 19:00 | 51.69467 | 2.73502 | 28606 ft | 399 kts | 258° |
| 2026-05-05 19:00 | 51.69073 | 2.69089 | 28179 ft | 397 kts | 259° |
| 2026-05-05 19:00 | 51.68680 | 2.64688 | 27770 ft | 395 kts | 259° |
| 2026-05-05 19:00 | 51.68293 | 2.60329 | 27344 ft | 392 kts | 258° |
| 2026-05-05 19:01 | 51.67902 | 2.55999 | 26935 ft | 388 kts | 259° |
| 2026-05-05 19:01 | 51.67510 | 2.51708 | 26516 ft | 387 kts | 259° |
| 2026-05-05 19:01 | 51.67120 | 2.47425 | 26108 ft | 385 kts | 258° |
| 2026-05-05 19:01 | 51.66731 | 2.43166 | 25694 ft | 383 kts | 258° |
| 2026-05-05 19:02 | 51.66341 | 2.38933 | 25283 ft | 380 kts | 260° |
| 2026-05-05 19:02 | 51.65953 | 2.34738 | 24871 ft | 377 kts | 260° |
| 2026-05-05 19:02 | 51.65567 | 2.30573 | 24464 ft | 375 kts | 261° |
| 2026-05-05 19:02 | 51.65187 | 2.26479 | 24055 ft | 373 kts | 261° |
| 2026-05-05 19:03 | 51.64803 | 2.22358 | 23640 ft | 371 kts | 261° |
| 2026-05-05 19:03 | 51.64421 | 2.18270 | 23188 ft | 368 kts | 261° |
| 2026-05-05 19:03 | 51.64040 | 2.14208 | 22778 ft | 364 kts | 261° |
| 2026-05-05 19:03 | 51.63661 | 2.10179 | 22377 ft | 362 kts | 261° |
| 2026-05-05 19:04 | 51.63290 | 2.06171 | 21983 ft | 361 kts | 261° |
| 2026-05-05 19:04 | 51.62922 | 2.02177 | 21575 ft | 359 kts | 261° |
| 2026-05-05 19:04 | 51.62555 | 1.98206 | 21176 ft | 358 kts | 261° |
| 2026-05-05 19:04 | 51.62194 | 1.94306 | 20783 ft | 357 kts | 261° |
| 2026-05-05 19:05 | 51.61827 | 1.90362 | 20383 ft | 356 kts | 261° |
| 2026-05-05 19:05 | 51.61350 | 1.86447 | 19986 ft | 356 kts | 253° |
| 2026-05-05 19:05 | 51.60391 | 1.82793 | 19586 ft | 355 kts | 239° |
| 2026-05-05 19:05 | 51.59002 | 1.79517 | 19172 ft | 353 kts | 232° |
| 2026-05-05 19:06 | 51.57457 | 1.76448 | 18759 ft | 351 kts | 228° |
| 2026-05-05 19:06 | 51.55822 | 1.73533 | 18355 ft | 350 kts | 227° |
| 2026-05-05 19:06 | 51.54176 | 1.70643 | 17928 ft | 350 kts | 227° |
| 2026-05-05 19:06 | 51.52567 | 1.67787 | 17517 ft | 348 kts | 227° |
| 2026-05-05 19:07 | 51.50954 | 1.64901 | 17109 ft | 346 kts | 228° |
| 2026-05-05 19:07 | 51.49410 | 1.61962 | 16705 ft | 344 kts | 234° |
| 2026-05-05 19:07 | 51.48424 | 1.59131 | 16384 ft | 342 kts | 247° |
| 2026-05-05 19:07 | 51.47562 | 1.55584 | 15970 ft | 340 kts | 250° |
| 2026-05-05 19:08 | 51.46758 | 1.52033 | 15591 ft | 337 kts | 250° |
| 2026-05-05 19:08 | 51.45956 | 1.48497 | 15175 ft | 335 kts | 250° |
| 2026-05-05 19:08 | 51.45156 | 1.45000 | 14767 ft | 334 kts | 250° |
| 2026-05-05 19:08 | 51.44355 | 1.41517 | 14362 ft | 332 kts | 250° |
| 2026-05-05 19:09 | 51.43346 | 1.38175 | 14043 ft | 337 kts | 236° |
| 2026-05-05 19:09 | 51.41712 | 1.35414 | 13931 ft | 346 kts | 218° |
| 2026-05-05 19:09 | 51.39814 | 1.33099 | 13926 ft | 349 kts | 217° |
| 2026-05-05 19:09 | 51.38049 | 1.30429 | 13935 ft | 350 kts | 230° |
| 2026-05-05 19:10 | 51.36625 | 1.27364 | 13655 ft | 349 kts | 235° |
| 2026-05-05 19:10 | 51.35256 | 1.24122 | 14057 ft | 353 kts | 236° |
| 2026-05-05 19:10 | 51.33905 | 1.20866 | 13959 ft | 350 kts | 236° |
| 2026-05-05 19:10 | 51.32569 | 1.17622 | 13931 ft | 350 kts | 236° |
| 2026-05-05 19:11 | 51.31228 | 1.14355 | 13934 ft | 352 kts | 236° |
| 2026-05-05 19:11 | 51.29885 | 1.11082 | 13934 ft | 353 kts | 236° |
| 2026-05-05 19:11 | 51.28538 | 1.07800 | 13933 ft | 353 kts | 236° |
| 2026-05-05 19:11 | 51.27188 | 1.04511 | 13932 ft | 354 kts | 236° |
| 2026-05-05 19:12 | 51.25839 | 1.01229 | 13934 ft | 353 kts | 236° |
| 2026-05-05 19:12 | 51.24492 | 0.97954 | 13938 ft | 353 kts | 236° |
| 2026-05-05 19:12 | 51.23143 | 0.94679 | 13564 ft | 352 kts | 237° |
| 2026-05-05 19:12 | 51.21817 | 0.91467 | 13171 ft | 348 kts | 237° |
| 2026-05-05 19:13 | 51.20498 | 0.88265 | 12721 ft | 344 kts | 237° |
| 2026-05-05 19:13 | 51.19407 | 0.84887 | 12206 ft | 341 kts | 250° |
| 2026-05-05 19:13 | 51.18702 | 0.81286 | 11713 ft | 339 kts | 256° |
| 2026-05-05 19:13 | 51.18079 | 0.77681 | 11272 ft | 335 kts | 256° |
| 2026-05-05 19:14 | 51.17472 | 0.74116 | 10911 ft | 329 kts | 256° |
| 2026-05-05 19:14 | 51.16894 | 0.70692 | 10748 ft | 318 kts | 256° |
| 2026-05-05 19:14 | 51.16322 | 0.67359 | 10585 ft | 306 kts | 256° |
| 2026-05-05 19:14 | 51.15765 | 0.64139 | 10401 ft | 297 kts | 256° |
| 2026-05-05 19:15 | 51.15211 | 0.60997 | 10093 ft | 293 kts | 256° |
| 2026-05-05 19:15 | 51.14666 | 0.57886 | 9713 ft | 290 kts | 256° |
| 2026-05-05 19:15 | 51.14123 | 0.54801 | 9305 ft | 288 kts | 256° |
| 2026-05-05 19:15 | 51.13583 | 0.51740 | 9154 ft | 286 kts | 256° |
| 2026-05-05 19:16 | 51.13041 | 0.48689 | 9124 ft | 287 kts | 256° |
| 2026-05-05 19:16 | 51.12501 | 0.45660 | 9123 ft | 287 kts | 256° |
| 2026-05-05 19:16 | 51.11957 | 0.42597 | 9128 ft | 286 kts | 256° |
| 2026-05-05 19:16 | 51.11419 | 0.39543 | 9128 ft | 286 kts | 256° |
| 2026-05-05 19:17 | 51.10881 | 0.36491 | 9127 ft | 286 kts | 256° |
| 2026-05-05 19:17 | 51.10348 | 0.33443 | 9127 ft | 286 kts | 256° |
| 2026-05-05 19:17 | 51.09808 | 0.30394 | 9112 ft | 286 kts | 256° |
| 2026-05-05 19:17 | 51.09275 | 0.27377 | 9102 ft | 286 kts | 256° |
| 2026-05-05 19:18 | 51.08813 | 0.24308 | 9077 ft | 286 kts | 260° |
| 2026-05-05 19:18 | 51.08428 | 0.21192 | 8630 ft | 290 kts | 261° |
| 2026-05-05 19:18 | 51.08051 | 0.18071 | 8290 ft | 285 kts | 261° |
| 2026-05-05 19:18 | 51.07679 | 0.14991 | 7911 ft | 281 kts | 261° |
| 2026-05-05 19:19 | 51.07304 | 0.11939 | 7507 ft | 280 kts | 261° |
| 2026-05-05 19:19 | 51.06927 | 0.08911 | 7094 ft | 279 kts | 261° |
| 2026-05-05 19:19 | 51.06548 | 0.05900 | 6685 ft | 277 kts | 261° |
| 2026-05-05 19:19 | 51.06165 | 0.02904 | 6302 ft | 275 kts | 261° |
| 2026-05-05 19:20 | 51.05778 | -0.00072 | 5882 ft | 274 kts | 261° |
| 2026-05-05 19:20 | 51.05398 | -0.03033 | 5424 ft | 273 kts | 261° |
| 2026-05-05 19:20 | 51.05027 | -0.05982 | 5023 ft | 272 kts | 261° |
| 2026-05-05 19:20 | 51.04664 | -0.08885 | 4626 ft | 271 kts | 261° |
| 2026-05-05 19:21 | 51.04299 | -0.11809 | 4235 ft | 269 kts | 261° |
| 2026-05-05 19:21 | 51.03941 | -0.14719 | 3820 ft | 268 kts | 261° |
| 2026-05-05 19:21 | 51.03590 | -0.17618 | 3444 ft | 266 kts | 261° |
| 2026-05-05 19:21 | 51.03248 | -0.20492 | 3099 ft | 263 kts | 261° |
| 2026-05-05 19:22 | 51.02911 | -0.23353 | 2997 ft | 264 kts | 261° |
| 2026-05-05 19:22 | 51.02576 | -0.26232 | 2987 ft | 264 kts | 261° |
| 2026-05-05 19:22 | 51.02243 | -0.29099 | 2989 ft | 264 kts | 261° |
| 2026-05-05 19:22 | 51.01908 | -0.31963 | 2992 ft | 264 kts | 261° |
| 2026-05-05 19:23 | 51.01573 | -0.34827 | 2996 ft | 264 kts | 261° |
| 2026-05-05 19:23 | 51.01251 | -0.37694 | 2987 ft | 264 kts | 263° |
| 2026-05-05 19:23 | 51.01372 | -0.40558 | 2991 ft | 255 kts | 289° |
| 2026-05-05 19:23 | 51.02056 | -0.43027 | 2995 ft | 235 kts | 300° |
| 2026-05-05 19:24 | 51.02803 | -0.45232 | 2995 ft | 219 kts | 301° |
| 2026-05-05 19:24 | 51.03502 | -0.47274 | 3001 ft | 201 kts | 301° |
| 2026-05-05 19:24 | 51.04138 | -0.49141 | 3015 ft | 186 kts | 301° |
| 2026-05-05 19:24 | 51.04754 | -0.50944 | 3000 ft | 186 kts | 301° |
| 2026-05-05 19:25 | 51.05426 | -0.52665 | 2986 ft | 186 kts | 313° |
| 2026-05-05 19:25 | 51.06524 | -0.53617 | 2994 ft | 181 kts | 353° |
| 2026-05-05 19:25 | 51.07722 | -0.53223 | 2990 ft | 179 kts | 32° |
| 2026-05-05 19:25 | 51.08594 | -0.51819 | 2994 ft | 179 kts | 52° |
| 2026-05-05 19:26 | 51.09302 | -0.50175 | 2997 ft | 181 kts | 55° |
| 2026-05-05 19:26 | 51.09985 | -0.48502 | 2993 ft | 181 kts | 56° |
| 2026-05-05 19:26 | 51.10670 | -0.46807 | 2994 ft | 181 kts | 55° |
| 2026-05-05 19:26 | 51.11188 | -0.44982 | 2998 ft | 180 kts | 71° |
| 2026-05-05 19:27 | 51.11472 | -0.43137 | 3002 ft | 165 kts | 75° |
| 2026-05-05 19:27 | 51.11719 | -0.41403 | 2900 ft | 156 kts | 75° |
| 2026-05-05 19:27 | 51.11952 | -0.39748 | 2680 ft | 151 kts | 76° |
| 2026-05-05 19:27 | 51.12178 | -0.38117 | 2466 ft | 150 kts | 76° |
| 2026-05-05 19:28 | 51.12403 | -0.36492 | 2254 ft | 150 kts | 76° |
| 2026-05-05 19:28 | 51.12627 | -0.34877 | 2045 ft | 149 kts | 76° |
| 2026-05-05 19:28 | 51.12846 | -0.33289 | 1844 ft | 146 kts | 77° |
| 2026-05-05 19:28 | 51.13060 | -0.31743 | 1659 ft | 140 kts | 77° |
| 2026-05-05 19:29 | 51.13268 | -0.30236 | 1459 ft | 138 kts | 78° |
| 2026-05-05 19:29 | 51.13474 | -0.28738 | 1275 ft | 138 kts | 77° |
| 2026-05-05 19:29 | 51.13680 | -0.27242 | 1080 ft | 138 kts | 77° |
| 2026-05-05 19:29 | 51.13896 | -0.25753 | 844 ft | 138 kts | 76° |
| 2026-05-05 19:30 | 51.14111 | -0.24264 | 677 ft | 138 kts | 76° |
| 2026-05-05 19:30 | 51.14305 | -0.22761 | 459 ft | 137 kts | 80° |
| 2026-05-05 19:30 | 51.14496 | -0.21273 | 297 ft | 136 kts | 76° |
| 2026-05-05 19:30 | 51.14712 | -0.19822 | 223 ft | 130 kts | 76° |
| 2026-05-05 19:31 | 51.14864 | -0.18668 | 211 ft | 77 kts | 78° |
| 2026-05-05 19:31 | 51.14940 | -0.18118 | 218 ft | 35 kts | 73° |
| 2026-05-05 19:31 | 51.15039 | -0.17826 | 220 ft | 24 kts | 51° |
| 2026-05-05 19:31 | 51.15096 | -0.17756 | 219 ft | 0 kts | 14° |
| 2026-05-05 19:32 | 51.15116 | -0.17755 | 217 ft | 8 kts | 359° |
| 2026-05-05 19:32 | 51.15172 | -0.17765 | 216 ft | 4 kts | 352° |
| 2026-05-05 19:32 | 51.15182 | -0.17768 | 216 ft | 0 kts | 352° |
| 2026-05-05 19:33 | 51.15190 | -0.17769 | 219 ft | 10 kts | 352° |
| 2026-05-05 19:33 | 51.15270 | -0.17667 | 218 ft | 20 kts | 72° |
| 2026-05-05 19:33 | 51.15299 | -0.17469 | 221 ft | 12 kts | 81° |
| 2026-05-05 19:34 | 51.15351 | -0.17377 | 219 ft | 14 kts | 359° |
| 2026-05-05 19:34 | 51.15466 | -0.17409 | 217 ft | 19 kts | 349° |
| 2026-05-05 19:34 | 51.15608 | -0.17453 | 220 ft | 20 kts | 348° |
| 2026-05-05 19:35 | 51.15800 | -0.17500 | 219 ft | 14 kts | 348° |
| 2026-05-05 19:35 | 51.15840 | -0.17514 | 215 ft | 3 kts | 347° |
| 2026-05-05 19:35 | 51.15846 | -0.17516 | 216 ft | 0 kts | 347° |